Time;durP1;ratioP1;P1;durP2;ratioP2;P2;SDS_P1;SDS_P2;PMS_P1;PMS_P2;Temp;Humidity;BMP_temperature;BMP_pressure;BME280_temperature;BME280_humidity;BME280_pressure;Samples;Min_cycle;Max_cycle;Signal;HPM_P1;HPM_P2
2022/03/17 00:01:48;;;;;;;86.10;49.53;;;;;;;;;;5072428;28;20520;-72
2022/03/17 00:04:14;;;;;;;90.17;46.47;;;;;;;;;;5073787;28;20389;-72
2022/03/17 00:06:41;;;;;;;75.60;44.73;;;;;;;;;;5073678;28;20389;-71
2022/03/17 00:09:07;;;;;;;75.80;45.57;;;;;;;;;;5072431;28;20844;-72
2022/03/17 00:11:33;;;;;;;82.07;48.00;;;;;;;;;;5073717;28;20394;-71
2022/03/17 00:14:01;;;;;;;82.07;47.60;;;;;;;;;;5073646;28;20410;-72
2022/03/17 00:16:27;;;;;;;80.80;43.97;;;;;;;;;;5073634;28;20394;-71
2022/03/17 00:18:55;;;;;;;76.33;45.33;;;;;;;;;;5073587;28;20908;-72
2022/03/17 00:21:21;;;;;;;77.57;43.17;;;;;;;;;;5073608;28;20759;-72
2022/03/17 00:23:47;;;;;;;70.13;42.30;;;;;;;;;;5073519;28;20415;-72
2022/03/17 00:26:13;;;;;;;71.47;41.33;;;;;;;;;;5073450;28;20402;-72
2022/03/17 00:28:39;;;;;;;68.10;38.17;;;;;;;;;;5073442;28;20473;-72
2022/03/17 00:31:05;;;;;;;63.90;36.93;;;;;;;;;;5073370;28;20441;-72
2022/03/17 00:33:31;;;;;;;59.07;37.07;;;;;;;;;;5073426;28;20460;-72
2022/03/17 00:35:57;;;;;;;58.17;36.87;;;;;;;;;;5073366;28;20406;-72
2022/03/17 00:38:23;;;;;;;70.47;39.53;;;;;;;;;;5073136;28;20468;-72
2022/03/17 00:40:49;;;;;;;74.50;41.60;;;;;;;;;;5073078;28;20406;-72
2022/03/17 00:43:15;;;;;;;71.03;40.47;;;;;;;;;;5073394;28;20395;-71
2022/03/17 00:45:45;;;;;;;79.43;41.43;;;;;;;;;;5073251;28;20426;-72
2022/03/17 00:48:11;;;;;;;77.37;43.83;;;;;;;;;;5071925;28;20506;-72
2022/03/17 00:50:38;;;;;;;84.03;47.80;;;;;;;;;;5073245;28;20418;-72
2022/03/17 00:53:04;;;;;;;83.80;47.07;;;;;;;;;;5073365;28;20406;-72
2022/03/17 00:55:30;;;;;;;84.83;49.23;;;;;;;;;;5073212;28;20449;-72
2022/03/17 00:57:56;;;;;;;86.00;50.10;;;;;;;;;;5073163;28;20409;-73
2022/03/17 01:00:22;;;;;;;92.77;51.87;;;;;;;;;;5073110;28;20559;-72
2022/03/17 01:02:50;;;;;;;83.47;46.67;;;;;;;;;;5071794;28;20420;-72
2022/03/17 01:05:17;;;;;;;80.53;47.53;;;;;;;;;;5073088;28;20420;-71
2022/03/17 01:07:43;;;;;;;77.10;46.37;;;;;;;;;;5073090;28;20410;-72
2022/03/17 01:10:11;;;;;;;77.80;46.53;;;;;;;;;;5071845;28;20426;-72
2022/03/17 01:12:37;;;;;;;74.97;44.13;;;;;;;;;;5073062;28;20874;-73
2022/03/17 01:15:04;;;;;;;72.20;42.77;;;;;;;;;;5071709;28;20418;-73
2022/03/17 01:17:30;;;;;;;83.60;44.43;;;;;;;;;;5071699;28;20823;-72
2022/03/17 01:19:56;;;;;;;72.93;43.70;;;;;;;;;;5073042;28;20906;-72
2022/03/17 01:22:22;;;;;;;66.87;40.73;;;;;;;;;;5072911;28;20417;-72
2022/03/17 01:24:49;;;;;;;70.57;40.20;;;;;;;;;;5072896;28;20901;-72
2022/03/17 01:27:15;;;;;;;76.30;42.03;;;;;;;;;;5073134;28;20410;-73
2022/03/17 01:29:43;;;;;;;68.60;41.00;;;;;;;;;;5072962;28;20500;-72
2022/03/17 01:32:09;;;;;;;69.30;42.40;;;;;;;;;;5072972;28;20451;-72
2022/03/17 01:34:35;;;;;;;74.80;41.40;;;;;;;;;;5071499;28;20788;-72
2022/03/17 01:37:01;;;;;;;65.50;40.20;;;;;;;;;;5072829;28;20491;-72
2022/03/17 01:39:27;;;;;;;66.07;40.07;;;;;;;;;;5072600;28;20523;-71
2022/03/17 01:41:57;;;;;;;68.40;40.37;;;;;;;;;;5072806;28;20436;-73
2022/03/17 01:44:23;;;;;;;74.07;42.93;;;;;;;;;;5072949;28;20425;-72
2022/03/17 01:49:37;;;;;;;71.67;42.50;;;;;;;;;;5072679;28;20480;-72
2022/03/17 01:52:04;;;;;;;83.90;47.27;;;;;;;;;;5073768;28;20799;-72
2022/03/17 01:54:30;;;;;;;75.67;44.00;;;;;;;;;;5076182;28;20413;-72
2022/03/17 01:56:58;;;;;;;82.47;45.27;;;;;;;;;;5076137;28;20451;-72
2022/03/17 01:59:25;;;;;;;84.37;48.37;;;;;;;;;;5076442;28;20418;-71
2022/03/17 02:01:52;;;;;;;82.47;47.73;;;;;;;;;;5076158;28;20444;-72
2022/03/17 02:04:18;;;;;;;85.87;47.90;;;;;;;;;;5074824;28;20426;-71
2022/03/17 02:06:44;;;;;;;83.63;47.07;;;;;;;;;;5074681;28;20460;-71
2022/03/17 02:09:10;;;;;;;83.37;47.03;;;;;;;;;;5074648;28;20473;-72
2022/03/17 02:14:26;;;;;;;91.90;47.07;;;;;;;;;;5056334;28;20473;-71
2022/03/17 02:16:52;;;;;;;87.80;48.10;;;;;;;;;;5075935;28;20394;-72
2022/03/17 02:19:22;;;;;;;86.33;46.37;;;;;;;;;;5075714;28;20885;-72
2022/03/17 02:21:49;;;;;;;93.37;48.00;;;;;;;;;;5075650;28;20394;-72
2022/03/17 02:27:01;;;;;;;84.00;46.43;;;;;;;;;;5075848;28;20402;-72
2022/03/17 02:29:28;;;;;;;81.30;45.67;;;;;;;;;;5074241;28;21060;-72
2022/03/17 02:31:55;;;;;;;85.70;46.30;;;;;;;;;;5075630;28;20402;-72
2022/03/17 02:34:20;;;;;;;85.13;48.07;;;;;;;;;;5075446;28;20882;-72
2022/03/17 02:36:50;;;;;;;97.17;52.60;;;;;;;;;;5075361;28;20409;-72
2022/03/17 02:39:17;;;;;;;83.20;45.43;;;;;;;;;;5075237;28;21001;-72
2022/03/17 02:41:43;;;;;;;80.80;45.20;;;;;;;;;;5075341;28;20409;-72
2022/03/17 02:44:09;;;;;;;79.87;43.87;;;;;;;;;;5073956;28;20533;-72
2022/03/17 02:46:35;;;;;;;76.43;42.67;;;;;;;;;;5075293;28;20405;-72
2022/03/17 02:49:02;;;;;;;74.17;41.50;;;;;;;;;;5075165;28;20491;-72
2022/03/17 02:51:28;;;;;;;70.67;43.13;;;;;;;;;;5075152;28;20475;-72
2022/03/17 02:53:53;;;;;;;72.90;42.17;;;;;;;;;;5075165;28;20949;-72
2022/03/17 02:56:19;;;;;;;71.13;37.87;;;;;;;;;;5075052;28;20493;-72
2022/03/17 02:58:45;;;;;;;69.63;39.87;;;;;;;;;;5073732;28;20788;-72
2022/03/17 03:01:11;;;;;;;59.27;38.23;;;;;;;;;;5074869;28;20464;-72
2022/03/17 03:03:38;;;;;;;60.57;37.60;;;;;;;;;;5074747;28;20794;-72
2022/03/17 03:06:04;;;;;;;65.73;38.00;;;;;;;;;;5074793;28;20402;-72
2022/03/17 03:08:30;;;;;;;69.80;39.53;;;;;;;;;;5073430;28;20478;-72
2022/03/17 03:10:57;;;;;;;72.87;39.93;;;;;;;;;;5074796;28;20394;-72
2022/03/17 03:13:23;;;;;;;78.43;42.90;;;;;;;;;;5074669;28;20406;-72
2022/03/17 03:15:52;;;;;;;82.17;43.60;;;;;;;;;;5074525;28;20420;-72
2022/03/17 03:18:18;;;;;;;71.30;42.27;;;;;;;;;;5074800;28;20401;-71
2022/03/17 03:20:44;;;;;;;71.53;40.83;;;;;;;;;;5074824;28;20431;-72
2022/03/17 03:23:10;;;;;;;68.70;38.53;;;;;;;;;;5074553;28;20402;-72
2022/03/17 03:25:36;;;;;;;74.60;41.07;;;;;;;;;;5074527;28;20429;-71
2022/03/17 03:28:06;;;;;;;67.13;39.67;;;;;;;;;;5074319;28;20829;-72
2022/03/17 03:30:32;;;;;;;62.90;38.53;;;;;;;;;;5074335;28;20417;-72
2022/03/17 03:32:58;;;;;;;67.77;39.00;;;;;;;;;;5072973;28;20818;-72
2022/03/17 03:38:09;;;;;;;66.37;37.57;;;;;;;;;;5074218;28;20473;-72
2022/03/17 03:40:35;;;;;;;66.17;38.17;;;;;;;;;;5074116;28;20774;-73
2022/03/17 03:43:01;;;;;;;69.73;39.73;;;;;;;;;;5074117;28;20410;-72
2022/03/17 03:45:27;;;;;;;64.00;39.27;;;;;;;;;;5073982;28;20410;-72
2022/03/17 03:47:53;;;;;;;73.53;42.03;;;;;;;;;;5073966;28;20410;-72
2022/03/17 03:50:19;;;;;;;70.70;40.07;;;;;;;;;;5073985;28;20418;-72
2022/03/17 03:52:45;;;;;;;73.13;41.27;;;;;;;;;;5073872;28;20937;-72
2022/03/17 03:55:11;;;;;;;72.23;41.10;;;;;;;;;;5073900;28;20381;-72
2022/03/17 03:57:37;;;;;;;80.30;48.90;;;;;;;;;;5073812;28;20818;-72
2022/03/17 04:00:14;;;;;;;76.53;42.57;;;;;;;;;;5072539;28;20422;-72
2022/03/17 04:02:40;;;;;;;70.83;39.90;;;;;;;;;;5073882;28;20402;-72
2022/03/17 04:05:07;;;;;;;73.97;39.90;;;;;;;;;;5073746;28;20934;-72
2022/03/17 04:07:33;;;;;;;68.90;39.80;;;;;;;;;;5073688;28;20448;-72
2022/03/17 04:09:59;;;;;;;65.47;38.10;;;;;;;;;;5072315;28;20512;-72
2022/03/17 04:12:24;;;;;;;69.77;38.47;;;;;;;;;;5073653;28;20398;-71
2022/03/17 04:14:50;;;;;;;61.17;37.10;;;;;;;;;;5073085;28;20410;-72
2022/03/17 04:17:16;;;;;;;68.30;39.70;;;;;;;;;;5073545;28;20399;-71
2022/03/17 04:19:42;;;;;;;76.37;40.60;;;;;;;;;;5073683;28;20528;-72
2022/03/17 04:22:09;;;;;;;75.10;41.93;;;;;;;;;;5073523;28;20439;-72
2022/03/17 04:24:37;;;;;;;69.40;40.60;;;;;;;;;;5073592;28;20426;-72
2022/03/17 04:27:05;;;;;;;76.03;41.53;;;;;;;;;;5073584;28;20862;-72
2022/03/17 04:29:31;;;;;;;74.27;42.47;;;;;;;;;;5073429;28;20508;-72
2022/03/17 04:31:57;;;;;;;69.10;40.30;;;;;;;;;;5073431;28;20428;-73
2022/03/17 04:34:23;;;;;;;71.23;40.20;;;;;;;;;;5072167;28;20434;-73
2022/03/17 04:36:49;;;;;;;70.53;41.37;;;;;;;;;;5073250;28;20430;-73
2022/03/17 04:39:15;;;;;;;71.87;39.87;;;;;;;;;;5073198;28;20482;-72
2022/03/17 04:41:41;;;;;;;69.93;39.20;;;;;;;;;;5073438;28;20424;-72
2022/03/17 04:44:07;;;;;;;72.90;40.60;;;;;;;;;;5073253;28;20769;-72
2022/03/17 04:46:34;;;;;;;72.73;40.33;;;;;;;;;;5073252;28;20398;-72
2022/03/17 04:49:00;;;;;;;63.23;38.63;;;;;;;;;;5073134;28;20987;-73
2022/03/17 04:51:26;;;;;;;63.10;38.33;;;;;;;;;;5073206;28;20409;-72
2022/03/17 04:53:52;;;;;;;69.93;37.63;;;;;;;;;;5073231;28;20398;-72
2022/03/17 04:56:18;;;;;;;74.50;40.33;;;;;;;;;;5073216;28;20421;-72
2022/03/17 04:58:44;;;;;;;65.83;38.80;;;;;;;;;;5071965;28;20507;-72
2022/03/17 05:01:12;;;;;;;62.73;37.77;;;;;;;;;;5073134;28;20928;-72
2022/03/17 05:03:38;;;;;;;59.03;37.80;;;;;;;;;;5071930;28;20425;-72
2022/03/17 05:06:05;;;;;;;63.87;40.10;;;;;;;;;;5073169;28;20460;-72
2022/03/17 05:08:34;;;;;;;69.13;39.20;;;;;;;;;;5073064;28;20484;-72
2022/03/17 05:11:00;;;;;;;62.97;39.20;;;;;;;;;;5073037;28;20441;-73
2022/03/17 05:13:27;;;;;;;62.63;38.60;;;;;;;;;;5073080;28;20909;-72
2022/03/17 05:15:53;;;;;;;72.63;41.80;;;;;;;;;;5072882;28;20477;-73
2022/03/17 05:18:19;;;;;;;68.97;40.57;;;;;;;;;;5071716;28;20797;-72
2022/03/17 05:20:46;;;;;;;74.63;38.77;;;;;;;;;;5073022;28;20821;-72
2022/03/17 05:23:12;;;;;;;68.70;40.10;;;;;;;;;;5073203;28;20451;-72
2022/03/17 05:25:42;;;;;;;69.17;38.80;;;;;;;;;;5071606;28;20513;-72
2022/03/17 05:28:08;;;;;;;95.30;48.83;;;;;;;;;;5075619;28;20461;-72
2022/03/17 05:30:35;;;;;;;80.93;41.93;;;;;;;;;;5076888;28;20450;-72
2022/03/17 05:33:01;;;;;;;73.77;40.47;;;;;;;;;;5076603;28;20399;-72
2022/03/17 05:35:27;;;;;;;111.97;68.13;;;;;;;;;;5076522;28;20421;-72
2022/03/17 05:37:53;;;;;;;105.90;60.70;;;;;;;;;;5075058;28;20877;-71
2022/03/17 05:40:19;;;;;;;92.57;46.97;;;;;;;;;;5075146;28;20425;-72
2022/03/17 05:42:47;;;;;;;86.07;48.17;;;;;;;;;;5076443;28;20505;-72
2022/03/17 05:45:14;;;;;;;73.40;45.23;;;;;;;;;;5076365;28;20418;-71
2022/03/17 05:47:42;;;;;;;71.63;42.50;;;;;;;;;;5075136;28;20499;-71
2022/03/17 05:50:09;;;;;;;66.60;40.73;;;;;;;;;;5076345;28;20895;-72
2022/03/17 05:52:36;;;;;;;77.97;43.47;;;;;;;;;;5076307;28;20402;-72
2022/03/17 05:55:02;;;;;;;77.80;43.27;;;;;;;;;;5076251;28;20426;-72
2022/03/17 05:57:28;;;;;;;80.27;41.40;;;;;;;;;;5076180;28;20892;-72
2022/03/17 05:59:54;;;;;;;74.27;40.10;;;;;;;;;;5076087;28;20983;-73
2022/03/17 06:02:20;;;;;;;79.83;41.60;;;;;;;;;;5076059;28;20408;-72
2022/03/17 06:04:46;;;;;;;71.87;41.30;;;;;;;;;;5076041;28;20497;-73
2022/03/17 06:07:12;;;;;;;77.70;42.07;;;;;;;;;;5076086;28;20409;-72
2022/03/17 06:09:39;;;;;;;69.83;41.07;;;;;;;;;;5075826;28;20941;-72
2022/03/17 06:12:05;;;;;;;69.77;41.27;;;;;;;;;;5075944;28;20398;-71
2022/03/17 06:14:32;;;;;;;63.60;38.13;;;;;;;;;;5074573;28;20833;-72
2022/03/17 06:16:58;;;;;;;72.60;41.33;;;;;;;;;;5075691;28;20774;-72
2022/03/17 06:19:24;;;;;;;66.93;39.53;;;;;;;;;;5075684;28;20417;-72
2022/03/17 06:21:50;;;;;;;63.87;38.40;;;;;;;;;;5074390;28;20425;-72
2022/03/17 06:24:16;;;;;;;62.50;38.97;;;;;;;;;;5075590;28;20406;-71
2022/03/17 06:26:42;;;;;;;74.23;38.50;;;;;;;;;;5075616;28;20462;-72
2022/03/17 06:29:08;;;;;;;63.83;38.07;;;;;;;;;;5074132;28;20473;-72
2022/03/17 06:31:36;;;;;;;60.83;36.80;;;;;;;;;;5075518;28;20953;-72
2022/03/17 06:34:02;;;;;;;55.90;35.50;;;;;;;;;;5075815;28;20447;-72
2022/03/17 06:36:29;;;;;;;68.97;37.93;;;;;;;;;;5075392;28;20956;-71
2022/03/17 06:38:55;;;;;;;61.03;35.33;;;;;;;;;;5074773;28;21000;-72
2022/03/17 06:41:21;;;;;;;63.70;38.20;;;;;;;;;;5075309;28;20395;-69
2022/03/17 06:43:47;;;;;;;58.00;35.27;;;;;;;;;;5075370;28;20415;-70
2022/03/17 06:46:13;;;;;;;58.50;36.13;;;;;;;;;;5075144;28;20410;-72
2022/03/17 06:48:39;;;;;;;64.60;38.80;;;;;;;;;;5075184;28;21029;-71
2022/03/17 06:51:06;;;;;;;67.10;39.60;;;;;;;;;;5075164;28;20417;-69
2022/03/17 06:53:32;;;;;;;66.40;37.67;;;;;;;;;;5074967;28;20390;-71
2022/03/17 06:55:58;;;;;;;65.13;38.77;;;;;;;;;;5074961;28;20410;-70
2022/03/17 06:58:24;;;;;;;65.93;40.43;;;;;;;;;;5074958;28;20433;-76
2022/03/17 07:00:50;;;;;;;66.13;38.00;;;;;;;;;;5075295;28;20446;-76
2022/03/17 07:03:16;;;;;;;59.03;37.67;;;;;;;;;;5073486;28;20426;-72
2022/03/17 07:05:42;;;;;;;67.17;40.00;;;;;;;;;;5074807;28;20406;-80
2022/03/17 07:08:08;;;;;;;69.43;38.97;;;;;;;;;;5074668;28;20429;-72
2022/03/17 07:10:34;;;;;;;66.53;38.90;;;;;;;;;;5074706;28;20420;-72
2022/03/17 07:13:00;;;;;;;66.47;41.30;;;;;;;;;;5074746;28;20406;-71
2022/03/17 07:15:26;;;;;;;64.10;39.57;;;;;;;;;;5074573;28;20429;-72
2022/03/17 07:17:52;;;;;;;64.00;38.93;;;;;;;;;;5074513;28;20885;-70
2022/03/17 07:20:19;;;;;;;71.80;43.00;;;;;;;;;;5074542;28;20418;-70
2022/03/17 07:22:50;;;;;;;66.90;38.93;;;;;;;;;;5074731;28;20414;-70
2022/03/17 07:25:17;;;;;;;63.13;36.60;;;;;;;;;;5074458;28;20441;-72
2022/03/17 07:27:45;;;;;;;60.20;37.00;;;;;;;;;;5074346;28;20406;-71
2022/03/17 07:30:17;;;;;;;62.20;37.60;;;;;;;;;;5074142;28;20557;-71
2022/03/17 07:32:43;;;;;;;62.00;36.17;;;;;;;;;;5074247;28;20417;-71
2022/03/17 07:35:09;;;;;;;58.80;37.07;;;;;;;;;;5074238;28;20448;-71
2022/03/17 07:37:35;;;;;;;71.00;37.80;;;;;;;;;;5074266;28;20465;-72
2022/03/17 07:40:01;;;;;;;61.27;37.00;;;;;;;;;;5074138;28;20770;-71
2022/03/17 07:42:27;;;;;;;57.23;34.93;;;;;;;;;;5074103;28;20413;-72
2022/03/17 07:44:53;;;;;;;53.93;36.23;;;;;;;;;;5074016;28;20421;-71
2022/03/17 07:47:19;;;;;;;56.13;35.90;;;;;;;;;;5073922;28;20467;-72
2022/03/17 07:49:45;;;;;;;61.70;35.30;;;;;;;;;;5073371;28;20474;-71
2022/03/17 07:52:11;;;;;;;59.13;35.50;;;;;;;;;;5073936;28;20440;-71
2022/03/17 07:54:37;;;;;;;57.43;37.07;;;;;;;;;;5073838;28;20837;-72
2022/03/17 07:57:03;;;;;;;52.53;34.83;;;;;;;;;;5073843;28;20398;-72
2022/03/17 07:59:29;;;;;;;59.00;35.53;;;;;;;;;;5073723;28;20920;-71
2022/03/17 08:01:55;;;;;;;49.90;32.13;;;;;;;;;;5073721;28;20900;-70
2022/03/17 08:04:21;;;;;;;53.27;34.37;;;;;;;;;;5073710;28;20829;-69
2022/03/17 08:06:47;;;;;;;45.87;31.93;;;;;;;;;;5073643;28;20953;-71
2022/03/17 08:09:13;;;;;;;57.80;39.40;;;;;;;;;;5073636;28;20470;-71
2022/03/17 08:11:39;;;;;;;49.90;32.37;;;;;;;;;;5073630;28;20459;-70
2022/03/17 08:14:05;;;;;;;46.20;30.97;;;;;;;;;;5072275;28;20428;-70
2022/03/17 08:16:31;;;;;;;46.23;30.50;;;;;;;;;;5073534;28;20497;-71
2022/03/17 08:18:57;;;;;;;50.57;32.50;;;;;;;;;;5073498;28;20418;-71
2022/03/17 08:21:23;;;;;;;45.80;29.87;;;;;;;;;;5073480;28;20449;-71
2022/03/17 08:23:49;;;;;;;49.93;33.93;;;;;;;;;;5072225;28;20453;-71
2022/03/17 08:26:16;;;;;;;51.10;33.80;;;;;;;;;;5073377;28;20558;-70
2022/03/17 08:28:42;;;;;;;53.03;30.43;;;;;;;;;;5073162;28;20560;-70
2022/03/17 08:31:08;;;;;;;41.03;28.30;;;;;;;;;;5071938;28;20801;-71
2022/03/17 08:33:34;;;;;;;42.20;28.57;;;;;;;;;;5073337;28;20777;-72
2022/03/17 08:36:00;;;;;;;45.73;26.80;;;;;;;;;;5073205;28;20406;-71
2022/03/17 08:38:26;;;;;;;40.50;27.90;;;;;;;;;;5072894;28;20466;-71
2022/03/17 08:40:52;;;;;;;38.93;25.83;;;;;;;;;;5072974;28;20506;-71
2022/03/17 08:43:18;;;;;;;43.80;27.30;;;;;;;;;;5072993;28;20437;-70
2022/03/17 08:51:13;;;;;;;43.60;27.20;;;;;;;;;;5073505;28;20967;-71
2022/03/17 08:53:40;;;;;;;35.03;26.30;;;;;;;;;;5073222;28;20758;-70
2022/03/17 08:56:06;;;;;;;46.50;26.60;;;;;;;;;;5071979;28;20456;-70
2022/03/17 08:58:35;;;;;;;49.07;27.40;;;;;;;;;;5073122;28;20451;-70
2022/03/17 09:01:01;;;;;;;34.87;25.23;;;;;;;;;;5074614;28;20775;-71
2022/03/17 09:03:30;;;;;;;41.27;25.53;;;;;;;;;;5077168;28;20425;-69
2022/03/17 09:05:58;;;;;;;35.23;23.93;;;;;;;;;;5077477;28;20398;-70
2022/03/17 09:08:24;;;;;;;33.30;23.07;;;;;;;;;;5076988;28;20461;-70
2022/03/17 09:10:50;;;;;;;29.70;22.43;;;;;;;;;;5077028;28;20501;-71
2022/03/17 09:13:16;;;;;;;32.70;22.40;;;;;;;;;;5076955;28;20390;-70
2022/03/17 09:15:42;;;;;;;29.57;21.63;;;;;;;;;;5076827;28;20418;-70
2022/03/17 09:18:09;;;;;;;30.30;21.97;;;;;;;;;;5076879;28;20426;-71
2022/03/17 09:20:35;;;;;;;32.27;19.63;;;;;;;;;;5076837;28;20425;-71
2022/03/17 09:23:02;;;;;;;28.13;20.97;;;;;;;;;;5075513;28;20418;-71
2022/03/17 09:25:29;;;;;;;23.60;20.07;;;;;;;;;;5076870;28;20406;-72
2022/03/17 09:27:55;;;;;;;29.80;20.80;;;;;;;;;;5076732;28;21023;-70
2022/03/17 09:30:22;;;;;;;26.27;19.80;;;;;;;;;;5076636;28;20440;-71
2022/03/17 09:32:48;;;;;;;30.37;21.50;;;;;;;;;;5075401;28;20765;-73
2022/03/17 09:35:15;;;;;;;28.80;21.87;;;;;;;;;;5076677;28;20425;-73
2022/03/17 09:37:41;;;;;;;29.10;21.20;;;;;;;;;;5076422;28;20955;-71
2022/03/17 09:40:08;;;;;;;28.17;21.43;;;;;;;;;;5076454;28;20419;-71
2022/03/17 09:42:35;;;;;;;29.70;22.30;;;;;;;;;;5076404;28;20469;-71
2022/03/17 09:45:01;;;;;;;28.50;23.27;;;;;;;;;;5076276;28;20424;-70
2022/03/17 09:47:28;;;;;;;33.80;24.30;;;;;;;;;;5076313;28;20842;-72
2022/03/17 09:49:56;;;;;;;33.33;24.50;;;;;;;;;;5076219;28;20478;-72
2022/03/17 09:52:23;;;;;;;36.70;24.40;;;;;;;;;;5076328;28;20415;-72
2022/03/17 09:54:49;;;;;;;42.07;25.73;;;;;;;;;;5076209;28;20401;-72
2022/03/17 09:57:16;;;;;;;38.57;25.90;;;;;;;;;;5076172;28;20484;-72
2022/03/17 09:59:46;;;;;;;35.13;25.57;;;;;;;;;;5076165;28;20418;-71
2022/03/17 10:02:16;;;;;;;38.00;26.80;;;;;;;;;;5076079;28;20485;-70
2022/03/17 10:04:44;;;;;;;64.10;28.03;;;;;;;;;;5076076;28;20483;-73
2022/03/17 10:07:10;;;;;;;46.73;28.37;;;;;;;;;;5076040;28;20425;-70
2022/03/17 10:09:36;;;;;;;38.93;29.00;;;;;;;;;;5076297;28;20558;-71
2022/03/17 10:12:02;;;;;;;39.60;28.70;;;;;;;;;;5074230;28;20466;-72
2022/03/17 10:14:39;;;;;;;44.20;29.40;;;;;;;;;;5075639;28;20433;-70
2022/03/17 10:17:06;;;;;;;36.43;27.83;;;;;;;;;;5075737;28;20417;-71
2022/03/17 10:19:33;;;;;;;40.17;26.83;;;;;;;;;;5074477;28;20449;-70
2022/03/17 10:22:14;;;;;;;42.23;26.20;;;;;;;;;;5075851;28;20401;-70
2022/03/17 10:24:52;;;;;;;38.60;27.20;;;;;;;;;;5075751;28;20406;-69
2022/03/17 10:27:36;;;;;;;49.47;26.50;;;;;;;;;;5074399;28;20478;-71
2022/03/17 10:30:03;;;;;;;38.00;26.27;;;;;;;;;;5075463;28;20483;-71
2022/03/17 10:32:29;;;;;;;41.57;26.87;;;;;;;;;;5075817;28;20413;-71
2022/03/17 10:34:56;;;;;;;39.07;28.17;;;;;;;;;;5075794;28;20497;-72
2022/03/17 10:37:24;;;;;;;38.40;27.27;;;;;;;;;;5075490;28;20494;-71
2022/03/17 10:40:01;;;;;;;36.13;26.60;;;;;;;;;;5075427;28;20421;-70
2022/03/17 10:42:28;;;;;;;39.87;28.33;;;;;;;;;;5075423;28;20413;-70
2022/03/17 10:45:00;;;;;;;38.83;26.73;;;;;;;;;;5075144;28;20414;-71
2022/03/17 10:47:31;;;;;;;41.30;27.57;;;;;;;;;;5075352;28;20416;-71
2022/03/17 10:50:00;;;;;;;36.13;27.57;;;;;;;;;;5073749;28;20994;-72
2022/03/17 10:52:26;;;;;;;39.07;27.13;;;;;;;;;;5075206;28;20405;-71
2022/03/17 10:54:58;;;;;;;36.13;27.63;;;;;;;;;;5075108;28;20884;-71
2022/03/17 10:57:25;;;;;;;42.50;27.50;;;;;;;;;;5075064;28;20418;-73
2022/03/17 10:59:53;;;;;;;40.10;26.73;;;;;;;;;;5075292;28;20421;-72
2022/03/17 11:02:25;;;;;;;36.43;26.20;;;;;;;;;;5074947;28;20417;-72
2022/03/17 11:04:51;;;;;;;41.97;29.60;;;;;;;;;;5074961;28;20877;-71
2022/03/17 11:07:19;;;;;;;37.23;27.17;;;;;;;;;;5074817;28;20504;-73
2022/03/17 11:09:46;;;;;;;38.20;28.53;;;;;;;;;;5074816;28;20473;-71
2022/03/17 11:12:17;;;;;;;35.63;28.80;;;;;;;;;;5075109;28;20401;-71
2022/03/17 11:14:47;;;;;;;42.77;31.13;;;;;;;;;;5074699;28;20924;-72
2022/03/17 11:17:19;;;;;;;52.63;32.23;;;;;;;;;;5074645;28;20410;-73
2022/03/17 11:19:45;;;;;;;44.80;33.23;;;;;;;;;;5074659;28;20406;-73
2022/03/17 11:22:14;;;;;;;45.20;29.57;;;;;;;;;;5074722;28;20475;-73
2022/03/17 11:24:40;;;;;;;43.13;29.40;;;;;;;;;;5074556;28;20742;-73
2022/03/17 11:27:10;;;;;;;48.53;30.67;;;;;;;;;;5074520;28;20876;-73
2022/03/17 11:29:44;;;;;;;46.23;33.67;;;;;;;;;;5073045;28;20912;-73
2022/03/17 11:32:24;;;;;;;45.93;32.27;;;;;;;;;;5074417;28;20393;-75
2022/03/17 11:34:50;;;;;;;42.47;30.57;;;;;;;;;;5074324;28;20452;-74
2022/03/17 11:37:16;;;;;;;43.13;31.90;;;;;;;;;;5074134;28;20405;-70
2022/03/17 11:39:52;;;;;;;56.27;33.17;;;;;;;;;;5074223;28;20413;-72
2022/03/17 11:42:30;;;;;;;44.20;33.50;;;;;;;;;;5074125;28;20409;-72
2022/03/17 11:45:14;;;;;;;46.83;33.30;;;;;;;;;;5074089;28;20431;-71
2022/03/17 11:47:50;;;;;;;53.90;34.43;;;;;;;;;;5072817;28;20472;-71
2022/03/17 11:50:28;;;;;;;46.00;34.10;;;;;;;;;;5073956;28;20838;-71
2022/03/17 11:52:59;;;;;;;43.43;34.60;;;;;;;;;;5073990;28;20504;-71
2022/03/17 11:55:31;;;;;;;48.60;35.60;;;;;;;;;;5073919;28;20405;-71
2022/03/17 11:58:19;;;;;;;57.23;35.83;;;;;;;;;;5073895;28;20454;-71
2022/03/17 12:00:53;;;;;;;57.03;35.07;;;;;;;;;;5072515;28;20429;-71
2022/03/17 12:03:29;;;;;;;49.13;36.03;;;;;;;;;;5073791;28;20489;-72
2022/03/17 12:06:05;;;;;;;50.73;36.93;;;;;;;;;;5072451;28;20811;-71
2022/03/17 12:08:41;;;;;;;49.47;36.10;;;;;;;;;;5073614;28;20451;-72
2022/03/17 12:11:11;;;;;;;47.70;35.70;;;;;;;;;;5073745;28;20400;-72
2022/03/17 12:13:37;;;;;;;47.30;36.40;;;;;;;;;;5073798;28;20430;-73
2022/03/17 12:16:04;;;;;;;53.13;36.83;;;;;;;;;;5073592;28;20415;-72
2022/03/17 12:18:30;;;;;;;58.93;37.23;;;;;;;;;;5073319;28;20411;-71
2022/03/17 12:20:57;;;;;;;61.43;37.13;;;;;;;;;;5073739;28;20413;-71
2022/03/17 12:23:41;;;;;;;47.30;35.17;;;;;;;;;;5073495;28;20401;-72
2022/03/17 12:26:07;;;;;;;49.57;37.00;;;;;;;;;;5073604;28;20421;-71
2022/03/17 12:28:33;;;;;;;51.87;35.97;;;;;;;;;;5073280;28;20534;-72
2022/03/17 12:30:59;;;;;;;64.37;37.50;;;;;;;;;;5073335;28;20490;-73
2022/03/17 12:33:26;;;;;;;52.80;36.20;;;;;;;;;;5073387;28;20399;-73
2022/03/17 12:36:07;;;;;;;54.40;39.23;;;;;;;;;;5072854;28;20825;-72
2022/03/17 12:38:36;;;;;;;56.73;36.93;;;;;;;;;;5073203;28;20877;-77
2022/03/17 12:41:02;;;;;;;54.93;38.93;;;;;;;;;;5073243;28;20487;-77
2022/03/17 12:43:34;;;;;;;57.13;39.20;;;;;;;;;;5073212;28;20416;-77
2022/03/17 12:46:00;;;;;;;61.80;36.67;;;;;;;;;;5073351;28;20411;-74
2022/03/17 12:48:30;;;;;;;54.77;34.60;;;;;;;;;;5073003;28;20456;-71
2022/03/17 12:51:03;;;;;;;45.57;35.47;;;;;;;;;;5073428;28;20426;-75
2022/03/17 12:53:30;;;;;;;48.70;35.70;;;;;;;;;;5073501;28;20405;-76
2022/03/17 12:55:56;;;;;;;60.03;40.13;;;;;;;;;;5073441;28;20520;-73
2022/03/17 12:58:22;;;;;;;51.90;38.13;;;;;;;;;;5073128;28;20481;-77
2022/03/17 13:00:48;;;;;;;47.50;35.10;;;;;;;;;;5073327;28;20483;-71
2022/03/17 13:03:20;;;;;;;51.80;38.07;;;;;;;;;;5073029;28;20480;-71
2022/03/17 13:08:37;;;;;;;55.67;38.20;;;;;;;;;;5073207;28;20471;-71
2022/03/17 13:16:41;;;;;;;57.67;39.33;;;;;;;;;;5073088;28;20411;-71
2022/03/17 13:19:08;;;;;;;64.67;41.60;;;;;;;;;;5073258;28;20400;-71
2022/03/17 13:21:35;;;;;;;53.27;38.53;;;;;;;;;;5073160;28;20465;-71
2022/03/17 13:24:12;;;;;;;65.80;38.97;;;;;;;;;;5073102;28;20412;-69
2022/03/17 13:26:39;;;;;;;54.70;36.60;;;;;;;;;;5072835;28;20486;-72
2022/03/17 13:29:05;;;;;;;57.57;37.60;;;;;;;;;;5071463;28;20520;-72
2022/03/17 13:31:43;;;;;;;53.77;37.00;;;;;;;;;;5072688;28;20420;-70
2022/03/17 13:34:09;;;;;;;46.47;36.37;;;;;;;;;;5072768;28;20399;-71
2022/03/17 13:36:53;;;;;;;59.33;36.47;;;;;;;;;;5072683;28;20508;-70
2022/03/17 13:39:19;;;;;;;55.33;38.53;;;;;;;;;;5072529;28;20525;-69
2022/03/17 13:41:59;;;;;;;54.87;36.13;;;;;;;;;;5072798;28;20400;-70
2022/03/17 13:44:25;;;;;;;49.10;36.17;;;;;;;;;;5072827;28;20498;-69
2022/03/17 13:46:50;;;;;;;51.20;37.03;;;;;;;;;;5072992;28;20491;-69
2022/03/17 13:49:23;;;;;;;53.53;37.17;;;;;;;;;;5075551;28;20794;-69
2022/03/17 13:51:52;;;;;;;45.73;34.97;;;;;;;;;;5076298;28;20761;-68
2022/03/17 13:54:18;;;;;;;51.03;36.47;;;;;;;;;;5076477;28;20769;-68
2022/03/17 13:56:44;;;;;;;47.80;37.03;;;;;;;;;;5076241;28;20499;-70
2022/03/17 13:59:13;;;;;;;46.90;37.20;;;;;;;;;;5076039;28;20407;-70
2022/03/17 14:01:39;;;;;;;47.20;35.73;;;;;;;;;;5075914;28;20505;-70
2022/03/17 14:04:05;;;;;;;49.97;36.27;;;;;;;;;;5076152;28;20567;-71
2022/03/17 14:06:37;;;;;;;51.63;36.53;;;;;;;;;;5074690;28;20420;-71
2022/03/17 14:09:07;;;;;;;47.50;37.73;;;;;;;;;;5074478;28;20517;-76
2022/03/17 14:11:34;;;;;;;52.50;36.33;;;;;;;;;;5074467;28;20416;-71
2022/03/17 14:14:04;;;;;;;48.87;35.20;;;;;;;;;;5075943;28;20412;-72
2022/03/17 14:16:31;;;;;;;54.80;36.60;;;;;;;;;;5075767;28;20424;-69
2022/03/17 14:19:00;;;;;;;52.73;37.93;;;;;;;;;;5075828;28;20406;-69
2022/03/17 14:21:27;;;;;;;51.93;35.27;;;;;;;;;;5075794;28;20424;-69
2022/03/17 14:24:12;;;;;;;45.10;35.13;;;;;;;;;;5075746;28;20434;-71
2022/03/17 14:26:42;;;;;;;50.70;36.53;;;;;;;;;;5075731;28;20905;-70
2022/03/17 14:29:09;;;;;;;44.33;35.30;;;;;;;;;;5075609;28;20452;-71
2022/03/17 14:31:36;;;;;;;47.17;34.97;;;;;;;;;;5075638;28;20790;-70
2022/03/17 14:34:03;;;;;;;53.47;36.67;;;;;;;;;;5075611;28;20392;-70
2022/03/17 14:36:30;;;;;;;46.50;35.67;;;;;;;;;;5075511;28;20416;-69
2022/03/17 14:38:56;;;;;;;53.40;35.80;;;;;;;;;;5075282;28;20885;-70
2022/03/17 14:41:23;;;;;;;49.80;36.63;;;;;;;;;;5075431;28;20485;-71
2022/03/17 14:43:51;;;;;;;48.57;35.73;;;;;;;;;;5075219;28;20412;-71